Time;durP1;ratioP1;P1;durP2;ratioP2;P2;SDS_P1;SDS_P2;PMS_P1;PMS_P2;Temp;Humidity;BMP_temperature;BMP_pressure;BME280_temperature;BME280_humidity;BME280_pressure;Samples;Min_cycle;Max_cycle;Signal;HPM_P1;HPM_P2
2021/10/29 00:02:23;;;;;;;10.93;9.50;;;13.30;97.60;;;;;;5013300;28;20425;-68
2021/10/29 00:04:49;;;;;;;8.53;7.63;;;13.30;97.60;;;;;;5012555;28;20508;-68
2021/10/29 00:07:15;;;;;;;10.80;8.47;;;13.40;97.50;;;;;;5012606;28;20860;-68
2021/10/29 00:09:41;;;;;;;9.50;8.50;;;13.40;97.40;;;;;;5012896;28;20408;-76
2021/10/29 00:12:07;;;;;;;9.37;8.37;;;13.40;97.40;;;;;;5012617;28;20202;-67
2021/10/29 00:14:34;;;;;;;9.93;8.93;;;13.50;97.40;;;;;;5013223;28;20174;-67
2021/10/29 00:17:00;;;;;;;9.10;8.20;;;13.60;97.60;;;;;;4994732;28;20819;-67
2021/10/29 00:19:26;;;;;;;13.17;9.33;;;13.50;97.20;;;;;;5013159;28;20413;-67
2021/10/29 00:21:53;;;;;;;9.37;7.83;;;13.50;97.30;;;;;;5012294;28;20416;-67
2021/10/29 00:24:19;;;;;;;8.50;7.70;;;13.60;97.40;;;;;;5013083;28;20413;-67
2021/10/29 00:26:46;;;;;;;10.23;8.50;;;13.60;97.40;;;;;;5012335;28;20466;-76
2021/10/29 00:29:12;;;;;;;8.83;7.97;;;13.60;97.40;;;;;;5012917;28;20763;-68
2021/10/29 00:31:38;;;;;;;11.37;7.70;;;13.70;97.50;;;;;;5012703;28;20428;-67
2021/10/29 00:34:04;;;;;;;9.80;8.40;;;13.70;97.70;;;;;;5012029;28;20405;-67
2021/10/29 00:36:30;;;;;;;10.43;9.37;;;13.60;97.60;;;;;;4995287;28;20555;-67
2021/10/29 00:38:56;;;;;;;10.83;9.80;;;13.70;97.50;;;;;;5012039;28;20406;-68
2021/10/29 00:41:22;;;;;;;11.07;9.57;;;13.70;97.50;;;;;;5012752;28;20181;-67
2021/10/29 00:43:47;;;;;;;9.73;8.80;;;13.70;97.50;;;;;;5012063;28;20183;-70
2021/10/29 00:46:13;;;;;;;9.53;8.67;;;13.80;97.40;;;;;;5012247;28;20260;-68
2021/10/29 00:48:39;;;;;;;10.63;9.53;;;13.80;97.20;;;;;;5013015;28;20182;-68
2021/10/29 00:51:05;;;;;;;9.77;8.77;;;13.90;97.20;;;;;;5011915;28;20189;-68
2021/10/29 00:53:32;;;;;;;9.90;8.87;;;13.90;97.20;;;;;;5012666;28;20178;-68
2021/10/29 00:55:58;;;;;;;10.47;8.80;;;13.90;97.20;;;;;;5011753;28;20483;-68
2021/10/29 00:58:24;;;;;;;8.67;7.53;;;13.80;97.00;;;;;;5012587;28;20905;-67
2021/10/29 01:00:50;;;;;;;10.27;9.20;;;13.80;97.00;;;;;;5011726;28;20443;-68
2021/10/29 01:03:16;;;;;;;9.57;8.67;;;13.80;97.10;;;;;;5012171;28;20471;-67
2021/10/29 01:05:43;;;;;;;9.37;8.47;;;13.70;96.90;;;;;;5011954;28;20221;-68
2021/10/29 01:08:10;;;;;;;9.20;8.30;;;13.70;97.10;;;;;;5011710;28;20559;-68
2021/10/29 01:10:37;;;;;;;8.23;7.43;;;13.70;96.90;;;;;;5012477;28;20412;-68
2021/10/29 01:13:03;;;;;;;11.47;8.67;;;13.70;97.10;;;;;;5011085;28;20470;-68
2021/10/29 01:15:30;;;;;;;8.50;7.80;;;13.80;96.90;;;;;;5012323;28;20538;-67
2021/10/29 01:17:55;;;;;;;8.00;7.20;;;13.80;96.80;;;;;;5011689;28;20468;-68
2021/10/29 01:20:23;;;;;;;9.13;8.23;;;13.80;96.60;;;;;;5012372;28;20905;-67
2021/10/29 01:22:49;;;;;;;9.77;7.70;;;13.80;96.70;;;;;;5011712;28;20175;-76
2021/10/29 01:25:15;;;;;;;9.60;7.80;;;13.70;96.60;;;;;;5012332;28;20501;-68
2021/10/29 01:27:41;;;;;;;7.90;7.20;;;13.70;96.70;;;;;;4994335;28;20784;-68
2021/10/29 01:30:08;;;;;;;8.70;7.80;;;13.70;96.60;;;;;;5011462;28;20414;-67
2021/10/29 01:32:34;;;;;;;8.60;7.40;;;13.60;96.70;;;;;;4994755;28;20475;-67
2021/10/29 01:35:00;;;;;;;8.20;7.40;;;13.60;96.50;;;;;;5010547;28;20430;-68
2021/10/29 01:37:26;;;;;;;8.50;7.20;;;13.60;96.50;;;;;;5012166;28;20468;-67
2021/10/29 01:39:51;;;;;;;8.60;7.83;;;13.70;96.50;;;;;;5011399;28;20265;-68
2021/10/29 01:42:17;;;;;;;8.20;7.40;;;13.70;96.20;;;;;;5011704;28;21035;-67
2021/10/29 01:44:46;;;;;;;7.63;6.93;;;13.60;96.30;;;;;;5012162;28;20617;-67
2021/10/29 01:47:12;;;;;;;7.73;6.93;;;13.60;96.40;;;;;;5011051;28;20190;-67
2021/10/29 01:49:39;;;;;;;7.70;6.93;;;13.70;96.30;;;;;;4994616;28;20492;-67
2021/10/29 01:52:06;;;;;;;7.67;6.90;;;13.70;96.30;;;;;;5011232;28;20429;-67
2021/10/29 01:54:32;;;;;;;7.10;6.50;;;13.80;95.90;;;;;;5011801;28;20754;-67
2021/10/29 01:56:59;;;;;;;13.80;8.30;;;13.70;95.90;;;;;;5010758;28;20468;-67
2021/10/29 01:59:25;;;;;;;8.30;7.33;;;13.50;96.10;;;;;;5012035;28;20468;-67
2021/10/29 02:01:54;;;;;;;10.43;7.60;;;13.50;96.30;;;;;;5011556;28;20422;-75
2021/10/29 02:04:21;;;;;;;7.97;7.13;;;13.50;96.40;;;;;;5011931;28;20420;-68
2021/10/29 02:06:47;;;;;;;8.03;7.17;;;13.50;96.40;;;;;;5011695;28;20781;-67
2021/10/29 02:09:12;;;;;;;7.73;6.90;;;13.40;96.70;;;;;;5010919;28;20909;-67
2021/10/29 02:11:40;;;;;;;7.60;6.90;;;13.50;96.40;;;;;;5011223;28;20444;-67
2021/10/29 02:14:06;;;;;;;6.93;6.23;;;13.50;96.50;;;;;;5011232;28;20185;-68
2021/10/29 02:16:32;;;;;;;9.00;7.50;;;13.50;96.60;;;;;;4994532;28;20465;-67
2021/10/29 02:18:58;;;;;;;10.20;7.10;;;13.50;96.50;;;;;;5010837;28;20420;-68
2021/10/29 02:21:23;;;;;;;8.60;7.10;;;13.50;96.50;;;;;;5011958;28;20793;-67
2021/10/29 02:23:49;;;;;;;7.87;6.97;;;13.50;96.30;;;;;;5011429;28;20186;-72
2021/10/29 02:26:15;;;;;;;8.63;7.40;;;13.40;96.40;;;;;;5014932;28;20196;-67
2021/10/29 02:28:41;;;;;;;8.63;7.13;;;13.30;96.80;;;;;;5014971;28;20833;-67
2021/10/29 02:31:07;;;;;;;9.30;7.93;;;13.40;96.90;;;;;;5014189;28;20461;-67
2021/10/29 02:33:33;;;;;;;8.50;7.40;;;13.30;96.70;;;;;;5014930;28;20223;-69
2021/10/29 02:35:59;;;;;;;7.73;6.97;;;13.40;96.90;;;;;;4996724;28;20913;-68
2021/10/29 02:38:24;;;;;;;7.50;6.80;;;13.50;96.60;;;;;;5015192;28;20182;-67
2021/10/29 02:40:52;;;;;;;9.50;7.00;;;13.50;96.60;;;;;;5014710;28;20189;-76
2021/10/29 02:43:17;;;;;;;8.03;7.23;;;13.60;96.40;;;;;;5014732;28;20305;-67
2021/10/29 02:45:43;;;;;;;9.43;7.30;;;13.50;96.70;;;;;;5014798;28;20426;-67
2021/10/29 02:48:10;;;;;;;8.00;7.20;;;13.60;96.90;;;;;;5013507;28;20183;-67
2021/10/29 02:50:35;;;;;;;7.40;6.70;;;13.60;96.40;;;;;;5014997;28;20416;-67
2021/10/29 02:53:05;;;;;;;7.80;7.10;;;13.70;96.20;;;;;;5014131;28;20424;-67
2021/10/29 02:55:31;;;;;;;7.93;7.10;;;13.70;96.00;;;;;;5014643;28;20428;-68
2021/10/29 02:57:57;;;;;;;8.17;7.37;;;13.90;96.10;;;;;;5013846;28;20456;-68
2021/10/29 03:00:23;;;;;;;7.90;7.07;;;13.90;95.70;;;;;;5014630;28;20417;-67
2021/10/29 03:02:49;;;;;;;8.57;7.67;;;13.80;95.70;;;;;;5014388;28;20520;-68
2021/10/29 03:05:15;;;;;;;8.80;7.77;;;13.80;95.80;;;;;;5013739;28;20417;-67
2021/10/29 03:07:42;;;;;;;8.70;7.03;;;13.90;95.90;;;;;;5014222;28;20239;-67
2021/10/29 03:10:09;;;;;;;8.53;6.90;;;13.90;95.80;;;;;;5013672;28;20432;-68
2021/10/29 03:12:35;;;;;;;11.47;7.83;;;13.90;95.60;;;;;;5014210;28;20405;-68
2021/10/29 03:15:01;;;;;;;8.33;7.23;;;14.00;95.70;;;;;;5013538;28;20909;-69
2021/10/29 03:17:27;;;;;;;9.70;7.50;;;14.00;95.50;;;;;;4996653;28;20535;-68
2021/10/29 03:19:53;;;;;;;8.43;7.53;;;13.90;95.70;;;;;;5014281;28;20418;-79
2021/10/29 03:22:19;;;;;;;7.90;7.10;;;14.00;95.70;;;;;;5013835;28;20182;-68
2021/10/29 03:24:45;;;;;;;8.80;7.70;;;13.90;95.80;;;;;;5014143;28;20820;-68
2021/10/29 03:27:11;;;;;;;8.63;7.90;;;13.80;95.50;;;;;;5013258;28;20421;-68
2021/10/29 03:29:38;;;;;;;8.33;7.53;;;13.80;95.80;;;;;;5014176;28;20221;-69
2021/10/29 03:32:04;;;;;;;8.07;7.27;;;13.90;96.00;;;;;;5013208;28;20175;-68
2021/10/29 03:34:30;;;;;;;8.00;7.20;;;13.90;96.00;;;;;;5013306;28;20929;-68
2021/10/29 03:36:56;;;;;;;8.50;7.60;;;13.90;95.80;;;;;;5005851;28;20525;-76
2021/10/29 03:39:30;;;;;;;7.10;6.50;;;13.90;95.80;;;;;;4976824;28;20275;-69
2021/10/29 03:42:02;;;;;;;8.20;6.77;;;13.90;95.60;;;;;;5003946;28;20848;-69
2021/10/29 03:47:00;;;;;;;9.17;7.80;;;13.80;95.80;;;;;;4993408;28;20429;-69
2021/10/29 03:49:48;;;;;;;10.23;7.30;;;13.80;95.80;;;;;;5001533;28;20425;-68
2021/10/29 03:52:27;;;;;;;8.20;7.40;;;13.90;95.70;;;;;;4999310;28;20520;-68
2021/10/29 03:54:56;;;;;;;10.90;9.90;;;14.00;95.50;;;;;;4991044;28;20896;-78
2021/10/29 03:57:26;;;;;;;7.50;6.77;;;14.00;95.30;;;;;;4994118;28;20548;-68
2021/10/29 03:59:53;;;;;;;9.80;9.00;;;14.00;95.10;;;;;;4994359;28;20426;-69
2021/10/29 04:02:20;;;;;;;9.87;8.97;;;14.20;95.00;;;;;;4992791;28;20439;-68
2021/10/29 04:04:46;;;;;;;8.20;7.20;;;14.30;94.90;;;;;;4993777;28;20474;-68
2021/10/29 04:07:12;;;;;;;7.97;7.17;;;14.30;94.60;;;;;;4977218;28;20427;-68
2021/10/29 04:09:38;;;;;;;9.60;7.40;;;14.50;94.80;;;;;;5006160;28;20251;-68
2021/10/29 04:12:04;;;;;;;8.20;7.50;;;14.40;94.70;;;;;;4993258;28;20176;-68
2021/10/29 04:14:30;;;;;;;6.73;6.23;;;14.50;94.60;;;;;;4994024;28;20186;-68
2021/10/29 04:16:56;;;;;;;9.00;8.20;;;14.50;94.70;;;;;;4996156;28;20479;-69
2021/10/29 04:19:23;;;;;;;10.17;8.33;;;14.50;94.50;;;;;;4992299;28;20459;-68
2021/10/29 04:21:49;;;;;;;8.40;7.60;;;14.40;94.30;;;;;;4993928;28;20458;-68
2021/10/29 04:24:15;;;;;;;10.53;7.73;;;14.10;94.50;;;;;;4992573;28;20472;-68
2021/10/29 04:26:41;;;;;;;8.63;7.57;;;14.00;94.80;;;;;;4993424;28;20433;-68
2021/10/29 04:29:14;;;;;;;9.90;7.63;;;14.00;94.80;;;;;;4992883;28;20420;-68
2021/10/29 04:31:49;;;;;;;8.40;7.70;;;14.10;94.90;;;;;;4993690;28;20395;-68
2021/10/29 04:34:17;;;;;;;7.70;5.87;;;14.10;94.70;;;;;;4979100;28;20450;-69
2021/10/29 04:36:43;;;;;;;8.03;7.23;;;14.00;94.60;;;;;;4993559;28;20459;-68
2021/10/29 04:39:13;;;;;;;7.67;6.83;;;14.00;94.80;;;;;;4992969;28;20506;-69
2021/10/29 04:41:44;;;;;;;6.80;6.20;;;14.00;94.70;;;;;;4996498;28;20480;-69
2021/10/29 04:44:10;;;;;;;8.10;6.37;;;14.00;94.60;;;;;;5011874;28;20433;-69
2021/10/29 04:46:36;;;;;;;8.13;6.97;;;14.10;94.60;;;;;;5012149;28;20434;-68
2021/10/29 04:49:02;;;;;;;12.00;10.03;;;14.00;94.50;;;;;;5012302;28;20436;-69
2021/10/29 04:51:28;;;;;;;9.23;8.33;;;14.10;94.50;;;;;;5013023;28;20181;-69
2021/10/29 04:53:57;;;;;;;14.30;9.10;;;14.20;94.50;;;;;;5012355;28;20425;-68
2021/10/29 04:56:23;;;;;;;9.27;6.87;;;14.20;94.10;;;;;;5012589;28;20681;-68
2021/10/29 04:58:48;;;;;;;6.20;5.60;;;14.10;94.20;;;;;;5012604;28;20430;-67
2021/10/29 05:01:15;;;;;;;5.80;5.20;;;14.20;94.40;;;;;;5011692;28;20441;-69
2021/10/29 05:03:41;;;;;;;8.10;6.20;;;14.30;94.30;;;;;;4997113;28;20186;-68
2021/10/29 05:06:07;;;;;;;7.50;6.73;;;14.10;94.10;;;;;;5012246;28;20418;-68
2021/10/29 05:08:35;;;;;;;7.07;6.47;;;14.20;94.20;;;;;;5012834;28;20512;-68
2021/10/29 05:11:02;;;;;;;7.63;6.90;;;14.30;94.10;;;;;;5011745;28;20433;-68
2021/10/29 05:13:27;;;;;;;6.03;5.37;;;14.40;94.00;;;;;;5012741;28;20406;-67
2021/10/29 05:15:53;;;;;;;9.90;6.90;;;14.50;93.80;;;;;;5016699;28;20417;-68
2021/10/29 05:18:21;;;;;;;7.33;6.60;;;14.30;93.80;;;;;;5009468;28;20221;-68
2021/10/29 05:20:47;;;;;;;6.83;6.23;;;14.40;93.70;;;;;;4995573;28;20765;-68
2021/10/29 05:23:13;;;;;;;7.17;6.27;;;14.40;93.90;;;;;;5011767;28;20433;-69
2021/10/29 05:25:39;;;;;;;7.20;6.60;;;14.40;93.70;;;;;;5012121;28;20429;-69
2021/10/29 05:28:05;;;;;;;7.70;6.20;;;14.40;93.70;;;;;;5016656;28;20425;-69
2021/10/29 05:30:31;;;;;;;7.00;6.40;;;14.50;93.50;;;;;;5025165;28;20425;-68
2021/10/29 05:32:57;;;;;;;8.17;6.87;;;14.40;93.50;;;;;;5020376;28;20973;-68
2021/10/29 05:35:23;;;;;;;6.37;5.87;;;14.30;93.70;;;;;;5030428;28;20404;-68
2021/10/29 05:37:48;;;;;;;6.60;5.70;;;14.30;93.70;;;;;;5027431;28;20208;-68
2021/10/29 05:40:14;;;;;;;6.97;6.27;;;14.30;93.80;;;;;;5011578;28;20269;-70
2021/10/29 05:42:40;;;;;;;8.60;6.67;;;14.20;93.90;;;;;;5011808;28;20590;-69
2021/10/29 05:45:08;;;;;;;6.37;5.77;;;14.30;93.80;;;;;;5011845;28;20271;-68
2021/10/29 05:47:35;;;;;;;7.50;6.33;;;14.30;93.40;;;;;;5012392;28;20185;-69
2021/10/29 05:50:03;;;;;;;6.30;5.80;;;14.30;93.90;;;;;;5011832;28;20744;-75
2021/10/29 05:52:30;;;;;;;5.83;5.30;;;14.40;93.70;;;;;;5012062;28;20418;-68
2021/10/29 05:57:25;;;;;;;9.40;6.10;;;14.40;93.10;;;;;;5010970;28;20452;-69
2021/10/29 05:59:53;;;;;;;6.50;5.90;;;14.50;93.20;;;;;;5015123;28;20441;-68
2021/10/29 06:02:22;;;;;;;6.43;5.87;;;14.50;93.10;;;;;;5015233;28;20790;-69
2021/10/29 06:04:48;;;;;;;7.57;6.10;;;14.50;93.00;;;;;;5015800;28;20412;-68
2021/10/29 06:07:14;;;;;;;8.27;7.57;;;14.40;93.00;;;;;;5014527;28;20444;-68
2021/10/29 06:09:39;;;;;;;6.87;6.23;;;14.40;93.20;;;;;;5021965;28;20424;-68
2021/10/29 06:12:06;;;;;;;7.77;6.87;;;14.30;93.10;;;;;;5015241;28;20183;-69
2021/10/29 06:14:31;;;;;;;6.53;5.90;;;14.40;93.20;;;;;;5016101;28;20184;-69
2021/10/29 06:16:58;;;;;;;6.67;6.17;;;14.40;93.00;;;;;;5015703;28;20859;-69
2021/10/29 06:19:25;;;;;;;6.87;6.20;;;14.40;93.10;;;;;;5014992;28;20790;-69
2021/10/29 06:24:27;;;;;;;6.27;5.77;;;14.50;92.90;;;;;;5014898;28;20413;-68
2021/10/29 06:27:02;;;;;;;6.67;6.10;;;14.50;92.80;;;;;;5015515;28;20531;-68
2021/10/29 06:29:28;;;;;;;7.43;6.73;;;14.50;92.70;;;;;;5015758;28;20429;-68
2021/10/29 06:31:54;;;;;;;5.63;5.13;;;14.60;92.60;;;;;;5015608;28;20539;-68
2021/10/29 06:34:21;;;;;;;5.83;5.33;;;14.70;92.70;;;;;;5014960;28;20420;-67
2021/10/29 06:36:47;;;;;;;6.50;5.97;;;14.70;92.60;;;;;;5015229;28;20519;-67
2021/10/29 06:39:13;;;;;;;6.30;5.80;;;14.70;92.40;;;;;;5014849;28;20427;-67
2021/10/29 06:41:39;;;;;;;7.13;5.73;;;14.70;92.30;;;;;;5013834;28;20474;-67
2021/10/29 06:44:31;;;;;;;6.17;5.67;;;14.70;92.50;;;;;;5000947;28;20184;-68
2021/10/29 07:00:46;;;;;;;6.77;6.27;;;14.80;92.80;;;;;;4969222;28;20911;-67
2021/10/29 07:11:37;;;;;;;7.20;6.03;;;14.80;92.50;;;;;;5014286;28;20483;-68
2021/10/29 07:41:36;;;;;;;9.83;7.73;;;14.50;93.60;;;;;;5013312;28;20455;-67
2021/10/29 07:44:06;;;;;;;7.77;7.10;;;14.50;93.70;;;;;;5014374;28;20419;-67
2021/10/29 07:46:31;;;;;;;8.40;7.50;;;14.50;93.80;;;;;;5013677;28;20471;-66
2021/10/29 07:48:57;;;;;;;10.03;8.10;;;14.30;94.10;;;;;;5013794;28;20422;-67
2021/10/29 07:51:23;;;;;;;8.30;7.53;;;14.30;94.40;;;;;;5012933;28;20251;-67
2021/10/29 07:53:49;;;;;;;8.77;7.87;;;14.40;94.80;;;;;;5014070;28;20187;-67
2021/10/29 07:56:15;;;;;;;9.60;7.40;;;14.40;94.50;;;;;;5013306;28;20535;-67
2021/10/29 07:58:41;;;;;;;8.47;7.60;;;14.50;94.60;;;;;;5013735;28;20179;-67
2021/10/29 08:01:06;;;;;;;8.37;7.37;;;14.60;94.40;;;;;;5013880;28;20413;-68
2021/10/29 08:03:32;;;;;;;7.90;7.20;;;14.70;94.40;;;;;;5013227;28;20179;-67
2021/10/29 08:05:58;;;;;;;9.00;7.90;;;14.80;94.60;;;;;;5013483;28;20176;-67
2021/10/29 08:08:24;;;;;;;11.33;7.90;;;14.70;94.20;;;;;;5012583;28;20637;-67
2021/10/29 08:10:50;;;;;;;8.90;8.00;;;14.80;94.60;;;;;;5013132;28;20210;-67
2021/10/29 08:13:16;;;;;;;8.50;7.70;;;14.90;94.10;;;;;;5012814;28;20457;-67
2021/10/29 08:15:43;;;;;;;8.73;7.33;;;14.80;94.50;;;;;;4995731;28;20442;-67
2021/10/29 08:18:09;;;;;;;9.07;8.17;;;14.90;94.30;;;;;;4995727;28;20613;-67
2021/10/29 08:20:37;;;;;;;9.93;8.40;;;14.80;94.20;;;;;;5013580;28;20427;-67
2021/10/29 08:23:04;;;;;;;10.17;8.43;;;14.80;94.40;;;;;;5013470;28;20441;-67
2021/10/29 08:25:30;;;;;;;9.70;8.80;;;14.80;94.40;;;;;;5012608;28;20423;-67
2021/10/29 08:27:56;;;;;;;9.73;8.77;;;14.80;94.40;;;;;;5013404;28;20415;-67
2021/10/29 08:30:23;;;;;;;9.17;8.23;;;14.80;94.60;;;;;;5012430;28;20188;-67
2021/10/29 08:32:50;;;;;;;8.77;7.53;;;14.80;94.60;;;;;;5013089;28;20179;-67
2021/10/29 08:35:18;;;;;;;9.20;8.30;;;14.90;94.70;;;;;;5012777;28;20488;-67
2021/10/29 08:37:51;;;;;;;8.60;7.77;;;14.80;94.50;;;;;;5013123;28;20449;-67
2021/10/29 08:40:18;;;;;;;8.30;7.47;;;14.90;94.80;;;;;;5012751;28;20495;-67
2021/10/29 08:42:44;;;;;;;9.40;8.57;;;15.00;94.40;;;;;;5012925;28;20460;-67
2021/10/29 08:45:11;;;;;;;10.20;9.20;;;15.00;94.40;;;;;;5013246;28;20506;-67
2021/10/29 08:47:39;;;;;;;10.13;8.63;;;15.00;94.80;;;;;;5013199;28;20425;-67
2021/10/29 08:50:08;;;;;;;8.97;8.07;;;15.10;94.50;;;;;;5013088;28;20424;-67
2021/10/29 08:52:33;;;;;;;9.50;8.40;;;15.20;94.20;;;;;;5012753;28;20423;-67
2021/10/29 08:55:01;;;;;;;9.50;8.60;;;15.00;94.50;;;;;;5013307;28;20768;-67
2021/10/29 08:57:28;;;;;;;9.50;8.50;;;15.10;95.10;;;;;;5012456;28;20222;-67
2021/10/29 08:59:55;;;;;;;9.03;8.23;;;15.10;94.70;;;;;;5012977;28;20458;-67
2021/10/29 09:02:28;;;;;;;9.20;7.83;;;15.30;94.60;;;;;;5012618;28;20474;-67
2021/10/29 09:05:16;;;;;;;7.93;6.80;;;15.40;94.50;;;;;;5013185;28;20725;-67
2021/10/29 09:10:28;;;;;;;8.37;7.30;;;15.60;94.30;;;;;;5012678;28;20463;-67
2021/10/29 09:16:19;;;;;;;8.50;7.70;;;15.70;93.80;;;;;;5013051;28;20401;-67
2021/10/29 09:32:44;;;;;;;9.20;8.27;;;15.70;93.80;;;;;;5012710;28;20796;-67
2021/10/29 09:35:16;;;;;;;9.53;8.00;;;15.80;93.90;;;;;;4999080;28;20826;-67
2021/10/29 09:38:08;;;;;;;8.83;7.60;;;15.80;93.60;;;;;;5016252;28;20457;-67
2021/10/29 09:40:38;;;;;;;8.40;7.60;;;15.90;94.20;;;;;;5015956;28;20422;-67
2021/10/29 09:43:12;;;;;;;8.40;7.70;;;16.20;93.70;;;;;;5016046;28;20888;-67
2021/10/29 09:45:47;;;;;;;7.20;6.60;;;16.40;93.50;;;;;;5016184;28;20508;-67
2021/10/29 09:48:21;;;;;;;7.77;7.17;;;16.60;93.50;;;;;;4999506;28;20901;-67
2021/10/29 09:50:53;;;;;;;7.93;7.23;;;16.50;92.60;;;;;;5016470;28;20744;-67
2021/10/29 09:58:59;;;;;;;8.10;7.30;;;16.60;92.70;;;;;;4978884;28;20438;-67
2021/10/29 10:01:27;;;;;;;7.63;6.93;;;16.80;92.50;;;;;;5015560;28;20424;-67
2021/10/29 10:03:53;;;;;;;7.30;6.60;;;16.90;92.30;;;;;;5016078;28;20418;-67
2021/10/29 10:06:23;;;;;;;7.13;6.43;;;17.00;92.00;;;;;;5014873;28;20544;-71
2021/10/29 10:08:51;;;;;;;9.50;7.23;;;17.10;91.40;;;;;;5015527;28;20632;-67
2021/10/29 10:11:18;;;;;;;7.50;6.80;;;16.90;91.40;;;;;;5015253;28;20425;-69
2021/10/29 10:13:45;;;;;;;8.17;7.47;;;16.70;91.80;;;;;;5014338;28;20429;-66
2021/10/29 10:16:13;;;;;;;7.63;6.87;;;16.40;91.80;;;;;;5015578;28;20432;-66
2021/10/29 10:18:40;;;;;;;7.23;6.63;;;16.40;92.50;;;;;;4997043;28;20446;-66
2021/10/29 10:21:13;;;;;;;6.70;6.00;;;16.60;92.30;;;;;;5014781;28;20445;-67
2021/10/29 10:23:45;;;;;;;7.30;6.60;;;16.80;92.30;;;;;;5015020;28;20639;-67
2021/10/29 10:29:26;;;;;;;6.77;6.17;;;17.20;92.10;;;;;;5016849;28;20410;-67
2021/10/29 10:40:22;;;;;;;6.77;6.17;;;18.60;90.30;;;;;;5015506;28;20895;-67
2021/10/29 10:48:29;;;;;;;6.53;5.93;;;19.10;86.70;;;;;;5013054;28;20424;-67
2021/10/29 10:54:27;;;;;;;6.97;6.10;;;18.80;83.60;;;;;;4990876;28;20453;-67
2021/10/29 10:57:12;;;;;;;7.50;6.90;;;18.70;85.60;;;;;;5014328;28;20489;-67
2021/10/29 11:02:42;;;;;;;6.20;5.67;;;18.90;84.40;;;;;;5014157;28;20485;-67
2021/10/29 11:11:12;;;;;;;5.90;5.30;;;19.10;86.30;;;;;;4993534;28;20429;-67
2021/10/29 11:13:44;;;;;;;7.37;6.77;;;19.30;86.60;;;;;;5013643;28;20430;-67
2021/10/29 11:16:24;;;;;;;6.70;6.20;;;19.40;85.10;;;;;;5013115;28;20520;-68
2021/10/29 11:19:05;;;;;;;6.53;6.03;;;19.50;84.20;;;;;;4993135;28;20461;-69
2021/10/29 11:21:35;;;;;;;6.63;6.03;;;19.30;83.20;;;;;;5012787;28;20406;-68
2021/10/29 11:24:07;;;;;;;6.17;5.77;;;19.30;82.40;;;;;;5013388;28;20414;-69
2021/10/29 11:26:41;;;;;;;5.97;5.20;;;19.10;82.00;;;;;;4994251;28;20403;-68
2021/10/29 11:29:12;;;;;;;6.33;5.50;;;19.20;83.40;;;;;;5011348;28;20421;-67
2021/10/29 11:31:47;;;;;;;6.03;5.43;;;19.10;82.10;;;;;;5011428;28;20425;-67
2021/10/29 11:34:16;;;;;;;6.40;5.60;;;19.00;81.70;;;;;;5011324;28;20429;-68
2021/10/29 11:36:46;;;;;;;6.27;5.77;;;19.00;83.10;;;;;;5012153;28;20461;-69
2021/10/29 11:39:13;;;;;;;6.00;5.50;;;19.10;82.60;;;;;;5013160;28;20407;-68
2021/10/29 11:41:42;;;;;;;5.80;5.30;;;19.10;82.40;;;;;;5013129;28;20457;-67
2021/10/29 11:44:22;;;;;;;4.93;4.53;;;19.10;82.20;;;;;;5014223;28;20390;-67
2021/10/29 11:46:50;;;;;;;5.33;4.93;;;19.20;82.10;;;;;;4996355;28;20418;-67
2021/10/29 11:49:24;;;;;;;8.03;5.53;;;19.30;81.30;;;;;;5012606;28;20978;-67
2021/10/29 11:51:51;;;;;;;5.80;5.40;;;19.30;80.80;;;;;;5013603;28;20405;-67
2021/10/29 11:54:23;;;;;;;5.67;5.27;;;19.20;81.30;;;;;;5013902;28;20438;-67
2021/10/29 12:07:31;;;;;;;6.47;5.97;;;18.90;83.20;;;;;;5013046;28;20466;-67
2021/10/29 12:10:17;;;;;;;6.00;5.60;;;19.00;82.10;;;;;;5013524;28;20390;-67
2021/10/29 12:12:45;;;;;;;6.30;5.80;;;18.90;81.70;;;;;;5012755;28;20531;-67
2021/10/29 12:15:17;;;;;;;4.83;4.40;;;18.80;82.60;;;;;;5013425;28;20418;-67
2021/10/29 12:18:10;;;;;;;5.13;4.73;;;18.80;82.70;;;;;;5011903;28;20472;-68
2021/10/29 12:20:39;;;;;;;5.80;5.40;;;18.60;82.70;;;;;;5012401;28;20422;-67
2021/10/29 12:23:12;;;;;;;5.80;5.20;;;18.60;83.90;;;;;;4995663;28;20834;-67
2021/10/29 12:25:44;;;;;;;5.47;5.07;;;18.60;82.90;;;;;;5012488;28;20497;-67
2021/10/29 12:28:36;;;;;;;4.80;4.40;;;18.50;82.80;;;;;;5010866;28;20422;-70
2021/10/29 13:01:38;;;;;;;6.17;5.67;;;18.40;84.60;;;;;;4955130;28;20975;-71
2021/10/29 13:04:15;;;;;;;5.30;4.80;;;18.40;84.70;;;;;;4980323;28;20942;-67
2021/10/29 13:06:47;;;;;;;5.70;5.30;;;18.40;84.40;;;;;;5010840;28;20433;-68
2021/10/29 13:09:16;;;;;;;6.20;5.60;;;18.30;84.80;;;;;;4993141;28;20785;-68
2021/10/29 13:11:44;;;;;;;5.43;5.00;;;18.30;85.10;;;;;;5011381;28;20799;-67
2021/10/29 13:14:12;;;;;;;5.53;4.83;;;18.40;85.20;;;;;;5012540;28;20437;-67
2021/10/29 13:16:38;;;;;;;6.40;5.90;;;18.40;84.90;;;;;;5011939;28;20417;-68
2021/10/29 13:36:04;;;;;;;5.33;5.00;;;18.40;85.40;;;;;;5011758;28;20875;-68
2021/10/29 13:52:42;;;;;;;5.60;5.10;;;17.80;86.50;;;;;;5011727;28;20504;-67
2021/10/29 14:35:26;;;;;;;6.47;5.53;;;18.70;84.00;;;;;;5012636;28;20917;-68
2021/10/29 14:40:46;;;;;;;119.27;88.60;;;18.80;84.10;;;;;;5009943;28;20501;-68
2021/10/29 15:02:14;;;;;;;5.53;5.13;;;18.60;84.50;;;;;;5013127;28;20391;-69
2021/10/29 15:15:06;;;;;;;5.90;5.33;;;18.30;85.60;;;;;;5013875;28;20410;-67
2021/10/29 15:26:14;;;;;;;5.53;5.10;;;18.10;86.20;;;;;;4993509;28;20410;-69
2021/10/29 15:28:47;;;;;;;5.83;5.43;;;17.80;87.00;;;;;;5012503;28;20476;-67
2021/10/29 15:41:53;;;;;;;7.17;6.53;;;17.50;89.60;;;;;;5007735;28;20469;-67
2021/10/29 15:44:32;;;;;;;6.63;6.10;;;17.40;89.50;;;;;;5014200;28;20580;-68
2021/10/29 15:47:01;;;;;;;12.00;10.97;;;17.40;89.90;;;;;;5013987;28;20406;-69
2021/10/29 15:49:38;;;;;;;66.27;42.00;;;17.30;90.00;;;;;;5012168;28;20831;-70
2021/10/29 15:52:13;;;;;;;21.73;18.37;;;17.30;90.10;;;;;;5011390;28;20430;-69
2021/10/29 15:54:44;;;;;;;6.83;6.13;;;17.40;90.00;;;;;;5009426;28;20449;-68
2021/10/29 15:57:10;;;;;;;6.40;5.80;;;17.30;89.80;;;;;;5013860;28;20539;-69
2021/10/29 16:02:44;;;;;;;6.40;5.77;;;17.20;90.40;;;;;;5012974;28;20553;-68
2021/10/29 16:18:52;;;;;;;6.77;6.17;;;17.10;90.70;;;;;;5013244;28;20779;-67
2021/10/29 16:21:18;;;;;;;6.83;6.13;;;17.10;90.70;;;;;;5012431;28;20417;-67
2021/10/29 16:23:44;;;;;;;5.50;5.00;;;17.20;90.80;;;;;;5011741;28;20414;-67
2021/10/29 16:26:16;;;;;;;6.97;6.27;;;17.20;90.80;;;;;;5012431;28;20246;-69
2021/10/29 16:28:42;;;;;;;6.80;6.20;;;17.20;90.50;;;;;;5010441;28;20167;-68
2021/10/29 16:31:11;;;;;;;6.33;5.77;;;17.30;90.40;;;;;;5011421;28;20761;-68
2021/10/29 16:33:37;;;;;;;6.23;5.83;;;17.30;90.40;;;;;;4993729;28;20438;-68
2021/10/29 16:36:04;;;;;;;6.30;5.80;;;17.20;90.30;;;;;;5011463;28;20454;-67
2021/10/29 16:38:31;;;;;;;7.20;6.60;;;17.20;90.30;;;;;;5010738;28;20568;-67
2021/10/29 16:40:57;;;;;;;7.60;7.00;;;17.20;90.50;;;;;;5011820;28;20418;-68
2021/10/29 16:43:23;;;;;;;7.70;6.67;;;17.20;90.50;;;;;;5010953;28;20539;-68
2021/10/29 16:45:50;;;;;;;7.43;6.83;;;17.10;90.30;;;;;;5011194;28;20175;-67
2021/10/29 16:48:19;;;;;;;7.37;6.77;;;17.10;90.40;;;;;;5011689;28;20487;-69
2021/10/29 16:50:46;;;;;;;7.77;7.07;;;16.90;90.70;;;;;;5008489;28;20493;-67
2021/10/29 16:53:12;;;;;;;7.00;6.50;;;16.90;90.90;;;;;;5012029;28;20461;-68
2021/10/29 16:55:40;;;;;;;8.23;6.70;;;16.70;90.90;;;;;;5011071;28;20450;-70
2021/10/29 16:58:07;;;;;;;7.47;6.80;;;16.80;91.20;;;;;;5008959;28;20520;-70
2021/10/29 17:00:33;;;;;;;7.93;7.33;;;16.70;91.20;;;;;;5010959;28;20427;-69
2021/10/29 17:02:58;;;;;;;7.37;6.67;;;16.70;91.40;;;;;;5011519;28;20434;-68
2021/10/29 17:05:24;;;;;;;7.37;6.77;;;16.80;91.40;;;;;;5008710;28;20457;-68
2021/10/29 17:07:50;;;;;;;7.20;6.60;;;16.80;91.50;;;;;;5010599;28;20281;-69
2021/10/29 17:10:19;;;;;;;7.20;6.70;;;16.80;91.40;;;;;;5011521;28;20182;-69
2021/10/29 17:12:45;;;;;;;7.23;6.73;;;16.90;91.60;;;;;;5011571;28;20433;-68
2021/10/29 17:15:16;;;;;;;6.60;6.00;;;16.90;91.40;;;;;;5012723;28;20772;-68
2021/10/29 17:17:43;;;;;;;7.90;7.30;;;16.90;91.20;;;;;;5010907;28;20445;-69
2021/10/29 17:20:11;;;;;;;8.77;8.07;;;16.90;91.20;;;;;;5011390;28;20532;-70
2021/10/29 17:22:39;;;;;;;7.70;6.93;;;16.80;91.10;;;;;;5010048;28;20410;-67
2021/10/29 17:25:09;;;;;;;7.60;6.90;;;16.80;91.20;;;;;;5010624;28;20980;-66
2021/10/29 17:27:36;;;;;;;7.43;6.93;;;16.70;91.40;;;;;;5010643;28;20764;-67
2021/10/29 17:30:03;;;;;;;7.63;6.97;;;16.70;91.40;;;;;;5010963;28;20906;-68
2021/10/29 17:32:29;;;;;;;7.30;6.80;;;16.80;91.40;;;;;;5011540;28;20812;-70
2021/10/29 17:34:55;;;;;;;8.13;7.43;;;16.80;91.50;;;;;;5011390;28;20421;-67
2021/10/29 17:37:21;;;;;;;8.70;7.83;;;16.80;91.50;;;;;;5012051;28;20195;-67
2021/10/29 17:39:47;;;;;;;7.50;6.90;;;16.80;91.40;;;;;;5011034;28;20426;-68
2021/10/29 17:42:13;;;;;;;8.53;7.73;;;16.70;91.50;;;;;;5012104;28;20301;-68
2021/10/29 17:44:40;;;;;;;8.73;8.03;;;16.80;91.80;;;;;;5010453;28;20652;-66